Time;durP1;ratioP1;P1;durP2;ratioP2;P2;SDS_P1;SDS_P2;PMS_P1;PMS_P2;Temp;Humidity;BMP_temperature;BMP_pressure;BME280_temperature;BME280_humidity;BME280_pressure;Samples;Min_cycle;Max_cycle;Signal;HPM_P1;HPM_P2
2023/01/27 00:00:30;;;;;;;50.13;20.97;;;;;;;-1.39;86.52;101042.05;125023;1099;104332;-85
2023/01/27 00:03:22;;;;;;;57.70;22.87;;;;;;;-1.38;86.64;101033.58;124948;1099;101843;-87
2023/01/27 00:05:53;;;;;;;48.33;18.83;;;;;;;-1.36;86.48;101032.03;124953;1099;104293;-86
2023/01/27 00:08:24;;;;;;;48.03;20.87;;;;;;;-1.35;87.25;101018.41;124924;1102;104311;-86
2023/01/27 00:13:44;;;;;;;54.43;22.80;;;;;;;-1.36;87.45;101014.91;124971;1102;102859;-87
2023/01/27 00:16:15;;;;;;;54.27;24.37;;;;;;;-1.43;87.43;101012.56;124843;1102;102950;-86
2023/01/27 00:18:46;;;;;;;53.50;21.00;;;;;;;-1.44;88.13;101021.04;124959;1102;104053;-82
2023/01/27 00:26:58;;;;;;;56.53;22.67;;;;;;;-1.53;88.61;101010.78;125001;1099;118609;-86
2023/01/27 00:29:30;;;;;;;61.55;25.05;;;;;;;-1.50;87.37;101015.33;124937;1099;104201;-86
2023/01/27 00:34:54;;;;;;;64.03;25.17;;;;;;;-1.45;88.51;101011.49;124924;1099;104214;-85
2023/01/27 00:37:25;;;;;;;63.43;26.37;;;;;;;-1.40;88.58;101009.34;125019;1102;101782;-86
2023/01/27 00:39:56;;;;;;;57.63;24.70;;;;;;;-1.39;88.53;101004.33;124932;1102;104376;-86
2023/01/27 00:42:27;;;;;;;64.67;25.73;;;;;;;-1.41;87.96;101004.98;124949;1102;102309;-87
2023/01/27 00:47:49;;;;;;;64.13;24.10;;;;;;;-1.35;88.65;101000.39;125077;1099;110313;-87
2023/01/27 00:50:21;;;;;;;46.13;18.67;;;;;;;-1.35;88.44;100997.81;124917;1102;104206;-87
2023/01/27 00:52:52;;;;;;;66.13;24.87;;;;;;;-1.37;88.67;101000.25;125106;1099;101979;-87
2023/01/27 00:55:23;;;;;;;60.80;24.80;;;;;;;-1.41;89.27;100993.00;125025;1099;104203;-86
2023/01/27 00:57:54;;;;;;;59.10;24.73;;;;;;;-1.41;88.22;100990.42;124883;1102;102013;-87
2023/01/27 01:00:26;;;;;;;64.13;25.63;;;;;;;-1.38;88.60;100992.39;124961;1101;104236;-87
2023/01/27 01:02:57;;;;;;;60.60;24.50;;;;;;;-1.34;88.76;100986.73;125066;1102;102396;-86
2023/01/27 01:05:29;;;;;;;65.27;24.50;;;;;;;-1.31;88.50;100993.08;125010;1100;104088;-85
2023/01/27 01:08:00;;;;;;;57.33;24.07;;;;;;;-1.27;88.55;100981.38;124927;1102;102216;-86
2023/01/27 01:10:33;;;;;;;52.37;19.97;;;;;;;-1.29;89.58;100980.34;124917;1102;104047;-86
2023/01/27 01:13:06;;;;;;;57.97;21.77;;;;;;;-1.35;89.31;100988.41;124859;1102;101974;-87
2023/01/27 01:15:38;;;;;;;56.77;23.42;;;;;;;-1.39;88.83;100995.72;124951;1102;102186;-88
2023/01/27 01:18:11;;;;;;;52.90;22.83;;;;;;;-1.38;88.41;101001.00;124961;1100;104261;-85
2023/01/27 01:20:44;;;;;;;52.50;19.80;;;;;;;-1.37;88.83;101018.27;124946;1099;102418;-86
2023/01/27 01:23:16;;;;;;;59.10;21.97;;;;;;;-1.37;89.29;101009.63;124974;1099;104176;-84
2023/01/27 01:25:54;;;;;;;53.60;22.73;;;;;;;-1.39;88.96;101011.16;125111;1099;104201;-86
2023/01/27 01:28:26;;;;;;;52.23;20.00;;;;;;;-1.36;88.45;101014.02;124947;1100;104166;-84
2023/01/27 01:31:03;;;;;;;53.17;21.87;;;;;;;-1.34;88.53;100997.03;125000;1102;101943;-87
2023/01/27 01:33:34;;;;;;;54.13;21.33;;;;;;;-1.34;89.10;100997.95;124958;1102;104140;-86
2023/01/27 01:36:08;;;;;;;56.40;21.97;;;;;;;-1.39;89.72;100980.27;124975;1101;104214;-85
2023/01/27 01:38:41;;;;;;;56.73;17.93;;;;;;;-1.45;90.66;100981.53;125197;1099;102061;-84
2023/01/27 01:41:15;;;;;;;60.17;22.87;;;;;;;-1.55;89.96;100973.72;125167;1102;102145;-85
2023/01/27 01:43:47;;;;;;;60.20;20.00;;;;;;;-1.59;90.97;100973.30;124958;1099;104300;-85
2023/01/27 01:46:19;;;;;;;60.27;22.90;;;;;;;-1.57;89.39;100975.27;124988;1099;104392;-84
2023/01/27 01:48:54;;;;;;;57.77;20.87;;;;;;;-1.53;90.14;100971.28;124919;1102;104214;-83
2023/01/27 01:51:32;;;;;;;60.50;23.93;;;;;;;-1.54;89.97;100967.81;124832;1102;102048;-85
2023/01/27 01:54:08;;;;;;;60.77;22.53;;;;;;;-1.54;89.90;100960.09;124929;1102;101895;-87
2023/01/27 01:56:43;;;;;;;61.87;22.53;;;;;;;-1.55;91.23;100950.55;124959;1102;104432;-86
2023/01/27 01:59:19;;;;;;;62.70;23.33;;;;;;;-1.53;90.71;100955.84;124950;1102;108314;-85
2023/01/27 02:01:53;;;;;;;66.90;24.27;;;;;;;-1.53;90.86;100954.16;125023;1099;104284;-86
2023/01/27 02:04:27;;;;;;;68.42;24.80;;;;;;;-1.50;90.77;100954.44;125027;1099;104185;-82
2023/01/27 02:07:11;;;;;;;59.63;23.47;;;;;;;-1.46;89.68;100950.50;124860;1099;104227;-85
2023/01/27 02:09:42;;;;;;;47.40;19.35;;;;;;;-1.45;90.70;100945.49;124992;1102;119149;-86
2023/01/27 02:12:14;;;;;;;61.40;23.67;;;;;;;-1.45;90.51;100949.71;124878;1102;104236;-86
2023/01/27 02:14:45;;;;;;;65.93;24.03;;;;;;;-1.42;89.35;100955.14;125016;1102;104189;-83
2023/01/27 02:17:17;;;;;;;65.27;24.03;;;;;;;-1.37;89.99;100963.28;125102;1102;104275;-87
2023/01/27 02:19:59;;;;;;;63.93;23.70;;;;;;;-1.36;90.85;100958.27;124921;1099;104217;-81
2023/01/27 02:22:43;;;;;;;65.33;22.10;;;;;;;-1.37;90.07;100959.06;124892;1099;102053;-80
2023/01/27 02:25:23;;;;;;;63.23;23.52;;;;;;;-1.38;90.59;100956.34;124904;1099;104169;-86
2023/01/27 02:27:54;;;;;;;60.00;22.60;;;;;;;-1.38;90.50;100961.49;124914;1099;103045;-83
2023/01/27 02:30:26;;;;;;;67.13;24.87;;;;;;;-1.36;90.87;100968.56;124937;1102;102260;-79
2023/01/27 02:33:00;;;;;;;59.27;23.97;;;;;;;-1.34;89.53;100959.34;125020;1102;101875;-83
2023/01/27 02:35:36;;;;;;;68.87;24.67;;;;;;;-1.36;90.77;100949.66;124820;1102;101945;-78
2023/01/27 02:38:09;;;;;;;66.57;23.33;;;;;;;-1.38;90.20;100946.05;124802;1102;105466;-87
2023/01/27 02:40:41;;;;;;;63.13;24.33;;;;;;;-1.40;90.92;100939.83;124825;1102;101886;-83
2023/01/27 02:43:13;;;;;;;56.07;21.73;;;;;;;-1.40;91.08;100929.53;124859;1102;101942;-84
2023/01/27 02:45:47;;;;;;;62.03;23.33;;;;;;;-1.37;90.05;100916.94;125121;1101;104271;-85
2023/01/27 02:48:19;;;;;;;64.40;24.07;;;;;;;-1.34;90.99;100896.62;124970;1102;104299;-87
2023/01/27 02:50:50;;;;;;;72.15;26.85;;;;;;;-1.33;91.33;100896.75;124890;1099;101932;-86
2023/01/27 02:53:21;;;;;;;62.70;22.77;;;;;;;-1.36;90.25;100900.73;125098;1099;104175;-85
2023/01/27 02:55:52;;;;;;;66.93;26.30;;;;;;;-1.37;90.69;100906.64;124889;1100;102933;-82
2023/01/27 02:58:24;;;;;;;68.03;25.37;;;;;;;-1.35;91.19;100905.13;124917;1099;104210;-85
2023/01/27 03:00:56;;;;;;;;;;;;;;;-1.33;91.54;100895.86;124970;1102;117987;-86
2023/01/27 03:03:28;;;;;;;64.20;23.13;;;;;;;-1.36;91.67;100887.86;124892;1102;104724;-83
2023/01/27 03:05:59;;;;;;;68.73;24.70;;;;;;;-1.43;92.02;100885.50;125307;1099;104230;-83
2023/01/27 03:08:30;;;;;;;65.63;24.47;;;;;;;-1.47;91.73;100892.05;124931;1101;104159;-84
2023/01/27 03:11:02;;;;;;;61.60;24.27;;;;;;;-1.47;91.19;100884.33;124863;1102;104217;-86
2023/01/27 03:13:35;;;;;;;68.50;25.93;;;;;;;-1.41;91.65;100890.03;124959;1102;102125;-87
2023/01/27 03:18:58;;;;;;;57.43;23.63;;;;;;;-1.42;91.80;100887.31;124865;1102;104188;-83
2023/01/27 03:21:29;;;;;;;67.53;24.40;;;;;;;-1.41;90.76;100894.28;124938;1099;109406;-86
2023/01/27 03:24:00;;;;;;;61.97;23.77;;;;;;;-1.38;90.56;100895.45;124985;1102;104226;-87
2023/01/27 03:26:32;;;;;;;50.25;22.75;;;;;;;-1.36;90.31;100888.76;124940;1102;102040;-86
2023/01/27 03:31:52;;;;;;;53.47;21.53;;;;;;;-1.32;90.08;100887.38;125030;1103;104182;-87
2023/01/27 03:34:24;;;;;;;56.13;22.43;;;;;;;-1.32;91.08;100879.66;124856;1102;104184;-85
2023/01/27 03:48:19;;;;;;;48.63;20.33;;;;;;;-1.33;89.78;100864.97;125128;1099;102154;-87
2023/01/27 03:50:55;;;;;;;46.37;18.63;;;;;;;-1.32;90.18;100853.91;124868;1102;104372;-87
2023/01/27 03:53:26;;;;;;;43.20;19.03;;;;;;;-1.31;89.03;100863.42;124973;1101;104172;-85
2023/01/27 03:55:58;;;;;;;50.07;21.17;;;;;;;-1.32;90.07;100861.64;124968;1102;104224;-87
2023/01/27 03:58:31;;;;;;;44.93;20.13;;;;;;;-1.29;89.07;100865.38;124975;1100;104191;-86
2023/01/27 04:01:05;;;;;;;52.30;21.57;;;;;;;-1.30;89.88;100858.41;124946;1102;104226;-87
2023/01/27 04:09:21;;;;;;;42.80;19.60;;;;;;;-1.29;88.37;100861.91;125103;1102;102174;-85
2023/01/27 04:11:57;;;;;;;42.57;20.00;;;;;;;-1.27;89.30;100862.94;125009;1099;101916;-86
2023/01/27 04:14:33;;;;;;;41.27;18.70;;;;;;;-1.25;88.88;100856.23;125083;1099;104189;-82
2023/01/27 04:17:07;;;;;;;44.77;18.27;;;;;;;-1.22;89.56;100856.51;125140;1099;102947;-86
2023/01/27 04:19:38;;;;;;;43.43;17.70;;;;;;;-1.22;89.17;100853.94;125008;1099;104380;-84
2023/01/27 04:22:10;;;;;;;42.53;18.77;;;;;;;-1.19;89.04;100855.89;124886;1102;104339;-86
2023/01/27 04:24:42;;;;;;;42.20;17.40;;;;;;;-1.18;89.55;100857.70;124912;1102;102258;-85
2023/01/27 04:27:15;;;;;;;41.77;18.20;;;;;;;-1.16;89.23;100867.35;124923;1100;104338;-85
2023/01/27 04:29:46;;;;;;;42.08;17.90;;;;;;;-1.16;88.74;100856.16;124828;1102;101994;-84
2023/01/27 04:32:18;;;;;;;41.27;16.80;;;;;;;-1.15;88.33;100858.88;125008;1102;105563;-86
2023/01/27 04:34:49;;;;;;;41.83;17.57;;;;;;;-1.14;88.95;100855.53;124890;1102;101921;-86
2023/01/27 04:37:20;;;;;;;42.33;17.87;;;;;;;-1.12;89.25;100856.56;125008;1099;104134;-82
2023/01/27 04:39:51;;;;;;;42.63;18.27;;;;;;;-1.12;88.80;100860.82;125005;1099;102048;-86
2023/01/27 04:42:23;;;;;;;39.35;17.35;;;;;;;-1.12;88.28;100856.56;124947;1099;104230;-86
2023/01/27 04:44:54;;;;;;;38.57;16.50;;;;;;;-1.12;88.82;100855.67;124913;1102;102409;-87
2023/01/27 04:47:25;;;;;;;40.00;17.00;;;;;;;-1.13;87.80;100854.75;125007;1101;104191;-87
2023/01/27 04:49:57;;;;;;;40.00;18.27;;;;;;;-1.12;88.94;100864.29;124945;1102;104249;-87
2023/01/27 04:52:28;;;;;;;37.37;16.67;;;;;;;-1.12;87.86;100869.44;124944;1099;104201;-81
2023/01/27 04:54:59;;;;;;;38.57;16.97;;;;;;;-1.11;88.22;100860.03;124876;1099;104252;-83
2023/01/27 04:57:30;;;;;;;40.60;16.63;;;;;;;-1.10;88.12;100864.42;124927;1099;104172;-84
2023/01/27 05:00:01;;;;;;;44.10;18.53;;;;;;;-1.10;87.86;100864.42;124861;1099;101845;-82
2023/01/27 05:02:33;;;;;;;41.65;17.35;;;;;;;-1.11;87.97;100866.11;124869;1102;104169;-83
2023/01/27 05:05:05;;;;;;;34.13;13.17;;;;;;;-1.20;86.63;100855.00;124862;1102;104175;-82
2023/01/27 05:07:36;;;;;;;38.85;17.65;;;;;;;-1.28;86.54;100840.52;124945;1102;104220;-83
2023/01/27 05:10:10;;;;;;;45.63;21.10;;;;;;;-1.31;86.79;100841.17;124959;1102;102180;-83
2023/01/27 05:12:41;;;;;;;45.50;20.23;;;;;;;-1.28;87.33;100840.52;124827;1102;101907;-79
2023/01/27 05:15:12;;;;;;;44.47;20.57;;;;;;;-1.32;87.09;100848.77;124939;1099;104207;-83
2023/01/27 05:17:44;;;;;;;45.17;19.57;;;;;;;-1.33;86.69;100852.09;124857;1099;104334;-82
2023/01/27 05:20:16;;;;;;;46.20;18.57;;;;;;;-1.34;86.34;100850.27;124950;1102;102990;-84
2023/01/27 05:22:47;;;;;;;42.30;19.40;;;;;;;-1.31;87.44;100850.55;124902;1099;104208;-83
2023/01/27 05:25:20;;;;;;;41.13;18.57;;;;;;;-1.29;87.99;100849.92;124873;1100;104265;-82
2023/01/27 05:27:55;;;;;;;46.13;18.70;;;;;;;-1.28;87.03;100855.97;125215;1102;104172;-82
2023/01/27 05:30:26;;;;;;;47.43;18.43;;;;;;;-1.25;87.36;100860.50;125045;1102;101820;-83
2023/01/27 05:32:58;;;;;;;41.63;17.33;;;;;;;-1.21;87.15;100862.59;124967;1100;102343;-80
2023/01/27 05:35:31;;;;;;;38.30;17.20;;;;;;;-1.19;87.14;100856.78;124950;1099;101944;-84
2023/01/27 05:38:04;;;;;;;39.87;16.90;;;;;;;-1.22;87.42;100861.66;124824;1099;102029;-80
2023/01/27 05:40:35;;;;;;;41.47;18.73;;;;;;;-1.24;87.24;100868.36;124853;1099;101800;-84
2023/01/27 05:43:06;;;;;;;38.80;17.13;;;;;;;-1.24;87.31;100858.05;124909;1102;104373;-82
2023/01/27 05:45:38;;;;;;;35.27;15.73;;;;;;;-1.24;86.51;100864.89;124880;1102;101945;-84
2023/01/27 05:48:10;;;;;;;36.60;15.93;;;;;;;-1.28;87.46;100856.89;124895;1102;104386;-82
2023/01/27 05:50:41;;;;;;;39.27;15.17;;;;;;;-1.26;87.26;100854.45;124777;1102;104140;-82
2023/01/27 05:53:13;;;;;;;40.27;17.10;;;;;;;-1.22;87.67;100853.94;124851;1102;102093;-81
2023/01/27 05:55:47;;;;;;;40.83;16.70;;;;;;;-1.19;86.69;100838.75;124832;1102;103171;-82
2023/01/27 05:58:19;;;;;;;36.97;15.60;;;;;;;-1.18;86.32;100832.84;124867;1102;101955;-79
2023/01/27 06:00:50;;;;;;;37.17;15.57;;;;;;;-1.18;86.27;100832.84;124870;1102;104230;-81
2023/01/27 06:03:22;;;;;;;38.10;14.63;;;;;;;-1.20;85.29;100812.87;125004;1102;101903;-76
2023/01/27 06:05:58;;;;;;;38.67;13.97;;;;;;;-1.20;85.50;100818.02;124935;1099;101931;-83
2023/01/27 06:08:29;;;;;;;35.80;14.93;;;;;;;-1.19;85.47;100820.73;125021;1099;103552;-81
2023/01/27 06:11:01;;;;;;;32.53;14.93;;;;;;;-1.22;85.51;100802.44;124954;1099;102103;-82
2023/01/27 06:13:34;;;;;;;40.05;15.90;;;;;;;-1.22;85.71;100804.12;125002;1099;103825;-80
2023/01/27 06:16:08;;;;;;;38.00;16.87;;;;;;;-1.18;86.68;100803.63;124979;1102;101954;-83
2023/01/27 06:18:44;;;;;;;43.23;17.77;;;;;;;-1.14;86.53;100809.17;124903;1100;102026;-82
2023/01/27 06:21:19;;;;;;;41.13;16.83;;;;;;;-1.14;85.46;100797.95;124932;1099;103192;-80
2023/01/27 06:23:52;;;;;;;41.67;17.67;;;;;;;-1.14;86.13;100800.53;124937;1102;102978;-79
2023/01/27 06:26:23;;;;;;;40.77;17.80;;;;;;;-1.09;86.97;100810.47;124867;1102;102534;-83
2023/01/27 06:28:55;;;;;;;38.50;16.87;;;;;;;-0.99;86.77;100806.12;124851;1102;104296;-80
2023/01/27 06:31:28;;;;;;;41.80;17.23;;;;;;;-0.96;86.46;100808.96;124880;1100;102691;-77
2023/01/27 06:33:59;;;;;;;43.13;18.47;;;;;;;-0.98;85.39;100811.41;124929;1100;102289;-79
2023/01/27 06:36:31;;;;;;;42.13;19.93;;;;;;;-1.01;85.31;100812.79;124777;1102;103302;-76
2023/01/27 06:39:03;;;;;;;42.55;18.80;;;;;;;-1.03;85.62;100812.66;124749;1102;102379;-77
2023/01/27 06:41:34;;;;;;;39.67;18.30;;;;;;;-0.99;86.26;100808.70;125014;1101;103336;-75
2023/01/27 06:44:06;;;;;;;41.43;17.60;;;;;;;-0.97;85.74;100808.03;124907;1102;104208;-77
2023/01/27 06:46:38;;;;;;;43.93;18.13;;;;;;;-0.97;85.95;100817.45;124847;1102;102549;-78
2023/01/27 06:49:10;;;;;;;43.47;18.90;;;;;;;-1.00;85.14;100823.22;124752;1102;103130;-76
2023/01/27 06:51:45;;;;;;;48.43;19.70;;;;;;;-0.97;86.01;100836.38;124900;1102;104323;-79
2023/01/27 06:54:19;;;;;;;45.63;20.47;;;;;;;-0.94;85.72;100843.47;125027;1100;103208;-76
2023/01/27 06:56:51;;;;;;;43.93;19.90;;;;;;;-0.87;86.59;100844.91;125036;1102;102683;-76
2023/01/27 06:59:25;;;;;;;44.83;19.50;;;;;;;-0.82;85.84;100854.84;125044;1102;102009;-76
2023/01/27 07:01:57;;;;;;;46.33;19.98;;;;;;;-0.78;86.44;100856.93;124951;1102;102342;-75
2023/01/27 07:04:28;;;;;;;43.17;17.77;;;;;;;-0.72;86.49;100856.53;124872;1102;105441;-78
2023/01/27 07:07:03;;;;;;;47.47;20.03;;;;;;;-0.69;86.21;100859.38;124984;1100;103565;-77
2023/01/27 07:09:35;;;;;;;50.87;20.63;;;;;;;-0.65;85.49;100868.30;124904;1102;103553;-75
2023/01/27 07:12:09;;;;;;;43.83;18.87;;;;;;;-0.75;84.57;100867.50;124989;1102;102925;-76
2023/01/27 07:14:41;;;;;;;52.53;20.90;;;;;;;-0.81;85.46;100868.63;125055;1100;102318;-75
2023/01/27 07:17:13;;;;;;;47.70;21.07;;;;;;;-0.87;85.21;100862.94;125047;1102;104332;-78
2023/01/27 07:19:44;;;;;;;45.10;18.93;;;;;;;-0.86;85.08;100865.65;125004;1102;102316;-77
2023/01/27 07:22:17;;;;;;;48.27;20.97;;;;;;;-0.81;85.06;100877.28;125080;1102;102174;-77
2023/01/27 07:24:54;;;;;;;49.00;21.77;;;;;;;-0.79;85.33;100880.88;124894;1102;102140;-77
2023/01/27 07:27:28;;;;;;;47.70;20.60;;;;;;;-0.77;84.72;100868.13;124950;1103;104226;-76
2023/01/27 07:30:00;;;;;;;50.98;20.92;;;;;;;-0.78;83.02;100861.16;125155;1102;104201;-75
2023/01/27 07:32:31;;;;;;;50.97;21.93;;;;;;;-0.78;84.43;100862.08;125076;1099;102813;-75
2023/01/27 07:35:06;;;;;;;49.87;22.20;;;;;;;-0.75;84.81;100877.81;124965;1099;103341;-77
2023/01/27 07:37:35;;;;;;;;;;;;;;;-0.70;85.02;100861.82;125092;1102;104257;-76
2023/01/27 07:40:12;;;;;;;47.90;22.07;;;;;;;-0.64;85.72;100859.77;125123;1102;102314;-77
2023/01/27 07:42:43;;;;;;;49.13;19.63;;;;;;;-0.66;82.90;100857.06;125030;1102;104185;-76
2023/01/27 07:45:17;;;;;;;49.90;19.83;;;;;;;-0.74;83.45;100842.62;124861;1102;103052;-77
2023/01/27 07:47:53;;;;;;;49.00;20.30;;;;;;;-0.79;83.41;100834.50;124953;1102;104179;-77
2023/01/27 07:50:39;;;;;;;49.67;22.03;;;;;;;-0.72;84.79;100825.61;125622;1099;101678;-78
2023/01/27 07:53:15;;;;;;;52.83;20.67;;;;;;;-0.67;84.09;100811.47;125694;1099;102093;-77
2023/01/27 07:55:54;;;;;;;55.00;22.63;;;;;;;-0.70;83.45;100799.97;124992;1099;104134;-76
2023/01/27 07:58:28;;;;;;;54.13;21.63;;;;;;;-0.64;84.95;100797.91;125053;1102;102742;-76
2023/01/27 08:01:04;;;;;;;49.57;22.00;;;;;;;-0.60;84.58;100798.30;125087;1101;102807;-76
2023/01/27 08:03:44;;;;;;;51.00;21.93;;;;;;;-0.58;84.34;100808.75;125033;1102;102362;-77
2023/01/27 08:06:23;;;;;;;51.77;22.10;;;;;;;-0.61;83.36;100804.25;124965;1102;102922;-77
2023/01/27 08:08:59;;;;;;;53.83;22.80;;;;;;;-0.60;84.58;100798.30;124975;1099;103043;-77
2023/01/27 08:11:42;;;;;;;49.73;22.07;;;;;;;-0.53;84.93;100804.91;125088;1099;103365;-78
2023/01/27 08:14:24;;;;;;;50.10;19.77;;;;;;;-0.55;82.61;100809.01;124923;1099;102338;-79
2023/01/27 08:17:06;;;;;;;47.83;22.17;;;;;;;-0.58;83.63;100811.33;125666;1099;102733;-78
2023/01/27 08:19:40;;;;;;;46.93;18.73;;;;;;;-0.52;84.25;100806.69;125770;1102;102308;-80
2023/01/27 08:22:18;;;;;;;49.17;20.63;;;;;;;-0.50;83.92;100805.13;125704;1101;102786;-78
2023/01/27 08:25:29;;;;;;;;;;;;;;;;;;;;;
2023/01/27 08:28:32;;;;;;;47.97;21.90;;;;;;;-0.30;84.30;100799.08;125625;1102;103506;-79
2023/01/27 08:31:16;;;;;;;50.70;20.47;;;;;;;-0.15;84.03;100789.15;125647;1102;103073;-78
2023/01/27 08:34:08;;;;;;;48.33;21.47;;;;;;;0.02;83.21;100787.04;125610;1102;102087;-82
2023/01/27 08:36:43;;;;;;;51.07;22.63;;;;;;;0.18;83.79;100784.95;125800;1102;103261;-77
2023/01/27 08:39:21;;;;;;;53.23;21.37;;;;;;;0.32;83.30;100775.75;125690;1101;103058;-78
2023/01/27 08:42:01;;;;;;;56.47;19.53;;;;;;;0.30;80.23;100785.95;125660;1102;103553;-76
2023/01/27 08:44:34;;;;;;;48.93;21.03;;;;;;;0.17;81.72;100788.30;125052;1102;104197;-76
2023/01/27 08:47:06;;;;;;;49.37;18.83;;;;;;;0.06;80.57;100791.69;125600;1102;102855;-79
2023/01/27 08:49:42;;;;;;;52.75;21.48;;;;;;;0.04;82.11;100790.67;125009;1102;103135;-76
2023/01/27 08:52:13;;;;;;;42.48;20.50;;;;;;;0.04;81.47;100786.40;124985;1101;103055;-79
2023/01/27 08:54:48;;;;;;;37.47;15.07;;;;;;;-0.01;80.04;100793.77;125448;1098;102767;-77
2023/01/27 08:57:31;;;;;;;43.80;20.27;;;;;;;-0.06;81.02;100789.91;124959;1099;104160;-76
2023/01/27 09:00:09;;;;;;;47.00;19.93;;;;;;;-0.12;80.95;100786.83;125363;1099;102531;-75
2023/01/27 09:02:43;;;;;;;44.60;20.20;;;;;;;-0.06;81.97;100779.59;126025;1099;103090;-76
2023/01/27 09:05:16;;;;;;;;;;;;;;;-0.02;81.20;100784.23;126102;1098;102130;-78
2023/01/27 09:07:50;;;;;;;42.78;19.67;;;;;;;0.03;82.37;100783.70;125959;1099;102660;-76
2023/01/27 09:13:56;;;;;;;49.27;21.07;;;;;;;0.21;82.69;100773.98;125925;1102;101556;-77
2023/01/27 09:16:47;;;;;;;45.00;19.35;;;;;;;0.24;81.80;100769.08;126573;1098;102649;-77
2023/01/27 09:19:26;;;;;;;44.43;19.77;;;;;;;0.25;82.24;100771.78;126517;1099;102697;-75
2023/01/27 09:21:59;;;;;;;43.30;20.10;;;;;;;0.29;82.78;100760.02;126052;1099;101896;-76
2023/01/27 09:24:31;;;;;;;45.80;19.70;;;;;;;0.31;81.57;100763.61;117809;1098;10000978;-78
2023/01/27 09:27:09;;;;;;;43.87;20.30;;;;;;;0.29;81.97;100754.84;119770;1099;10001495;-76
2023/01/27 09:29:42;;;;;;;44.63;20.20;;;;;;;0.31;81.69;100746.47;126534;1099;102351;-76
2023/01/27 09:32:27;;;;;;;44.87;19.87;;;;;;;0.26;80.03;100746.86;125960;1099;102682;-77
2023/01/27 09:35:00;;;;;;;50.20;21.80;;;;;;;0.21;80.56;100746.48;126547;1098;101839;-77
2023/01/27 09:37:34;;;;;;;43.30;19.97;;;;;;;0.25;80.94;100745.97;126645;1098;103109;-76
2023/01/27 09:40:15;;;;;;;42.40;19.27;;;;;;;0.24;81.39;100735.52;125882;1099;107081;-77
2023/01/27 09:43:04;;;;;;;41.93;19.63;;;;;;;0.23;81.06;100739.76;126313;1099;103093;-76
2023/01/27 09:46:09;;;;;;;42.67;18.77;;;;;;;0.23;80.67;100749.19;126472;1098;102716;-77
2023/01/27 09:49:12;;;;;;;43.13;20.40;;;;;;;0.22;80.32;100742.22;126423;1099;102071;-75
2023/01/27 09:52:02;;;;;;;42.33;20.27;;;;;;;0.29;81.73;100732.52;126252;1099;103204;-79
2023/01/27 09:54:57;;;;;;;51.47;22.47;;;;;;;0.28;80.60;100728.15;126413;1099;102969;-76
2023/01/27 09:57:41;;;;;;;44.70;21.83;;;;;;;0.29;80.75;100721.30;126469;1099;103237;-75
2023/01/27 10:00:30;;;;;;;44.07;19.57;;;;;;;0.25;79.03;100717.58;126240;1099;103124;-76
2023/01/27 10:03:29;;;;;;;44.40;21.33;;;;;;;0.23;80.19;100723.38;126463;1099;102620;-75
2023/01/27 10:06:18;;;;;;;46.47;19.90;;;;;;;0.18;79.46;100710.11;125936;1099;104016;-76
2023/01/27 10:09:20;;;;;;;47.70;20.93;;;;;;;0.21;79.78;100723.26;126409;1099;102623;-77
2023/01/27 10:12:08;;;;;;;46.23;21.47;;;;;;;0.33;80.35;100720.77;126537;1098;102427;-76
2023/01/27 10:14:51;;;;;;;44.40;20.00;;;;;;;0.45;80.81;100716.59;126428;1099;102174;-75
2023/01/27 10:17:40;;;;;;;46.43;20.00;;;;;;;0.35;77.37;100719.20;126536;1098;102092;-79
2023/01/27 10:20:26;;;;;;;45.40;21.70;;;;;;;0.34;80.03;100707.98;126368;1098;102742;-76
2023/01/27 10:23:08;;;;;;;46.40;20.43;;;;;;;0.24;79.36;100707.13;126395;1098;101948;-79
2023/01/27 10:25:53;;;;;;;43.90;20.13;;;;;;;0.23;79.62;100706.20;126568;1099;101888;-78
2023/01/27 10:28:31;;;;;;;48.50;22.73;;;;;;;0.26;79.23;100706.45;126415;1099;101720;-78
2023/01/27 10:31:11;;;;;;;46.03;22.27;;;;;;;0.30;79.99;100700.77;126459;1098;102369;-75
2023/01/27 10:33:51;;;;;;;41.33;18.30;;;;;;;0.29;78.20;100696.38;126453;1099;102994;-74
2023/01/27 10:36:29;;;;;;;44.87;21.67;;;;;;;0.27;79.82;100697.05;125917;1099;103029;-77
2023/01/27 10:39:12;;;;;;;42.20;20.57;;;;;;;0.23;79.40;100695.88;126481;1099;103878;-80
2023/01/27 10:42:06;;;;;;;47.07;22.47;;;;;;;0.26;80.28;100685.80;126392;1098;111537;-76
2023/01/27 10:45:01;;;;;;;49.97;22.07;;;;;;;0.29;80.20;100678.30;125850;1099;102345;-80
2023/01/27 10:47:56;;;;;;;44.77;21.43;;;;;;;0.39;80.41;100677.37;126349;1098;103157;-75
2023/01/27 10:50:39;;;;;;;45.27;20.03;;;;;;;0.34;78.87;100682.17;125707;1099;102238;-75
2023/01/27 10:53:15;;;;;;;41.67;19.60;;;;;;;0.29;79.15;100669.67;126268;1098;103263;-76
2023/01/27 10:55:58;;;;;;;38.53;17.77;;;;;;;0.17;77.88;100657.61;125669;1099;101984;-75
2023/01/27 10:58:50;;;;;;;43.55;20.43;;;;;;;0.20;79.84;100664.67;126391;1099;101998;-76
2023/01/27 11:01:41;;;;;;;;;;;;;;;;;;;;;
2023/01/27 11:04:18;;;;;;;46.93;20.60;;;;;;;0.25;78.73;100657.29;125690;1099;102841;-77
2023/01/27 11:06:56;;;;;;;49.07;21.97;;;;;;;0.22;79.43;100660.55;126084;1099;103255;-76
2023/01/27 11:09:34;;;;;;;45.03;21.10;;;;;;;0.23;79.52;100661.44;126396;1099;103582;-76
2023/01/27 11:12:14;;;;;;;47.13;21.73;;;;;;;0.23;78.22;100659.75;126584;1098;102637;-76
2023/01/27 11:14:50;;;;;;;37.97;16.57;;;;;;;0.15;78.55;100655.67;125896;1099;102607;-75
2023/01/27 11:17:31;;;;;;;45.27;21.83;;;;;;;0.08;79.25;100663.69;126287;1099;102288;-78
2023/01/27 11:20:26;;;;;;;48.97;24.23;;;;;;;0.07;79.41;100649.00;126409;1099;102277;-76
2023/01/27 11:23:06;;;;;;;88.65;25.68;;;;;;;0.05;79.05;100655.70;117328;1099;10001982;-76
2023/01/27 11:25:55;;;;;;;73.78;24.98;;;;;;;0.01;79.16;100648.52;126246;1098;102499;-76
2023/01/27 11:28:38;;;;;;;43.83;20.43;;;;;;;-0.03;79.25;100657.70;126117;1098;102800;-76
2023/01/27 11:31:31;;;;;;;80.93;27.13;;;;;;;-0.07;79.80;100646.20;126210;1099;103150;-75
2023/01/27 11:34:13;;;;;;;63.43;24.93;;;;;;;-0.03;79.87;100643.11;126304;1099;102026;-75
2023/01/27 11:36:47;;;;;;;52.77;24.13;;;;;;;-0.01;79.67;100644.13;126577;1099;102159;-75
2023/01/27 11:39:22;;;;;;;55.07;25.47;;;;;;;-0.02;79.47;100639.77;126361;1099;101941;-76
2023/01/27 11:41:56;;;;;;;49.70;20.97;;;;;;;-0.05;79.27;100646.33;126371;1099;102798;-76
2023/01/27 11:44:34;;;;;;;54.00;26.40;;;;;;;-0.07;79.54;100637.58;125897;1099;101831;-76
2023/01/27 11:47:16;;;;;;;60.97;24.57;;;;;;;-0.08;79.50;100633.19;126247;1098;102485;-77
2023/01/27 11:50:03;;;;;;;53.57;24.13;;;;;;;-0.13;79.98;100635.39;126371;1098;102137;-76
2023/01/27 11:52:35;;;;;;;49.23;22.10;;;;;;;-0.15;80.10;100636.96;126183;1098;102226;-75
2023/01/27 11:55:15;;;;;;;56.77;22.63;;;;;;;-0.15;80.43;100631.80;126604;1099;102560;-76
2023/01/27 11:58:02;;;;;;;51.29;23.96;;;;;;;-0.13;79.86;100625.08;115524;1099;10116132;-76
2023/01/27 12:07:22;;;;;;;46.97;20.40;;;;;;;-0.23;79.91;100633.77;125990;1099;102930;-76
2023/01/27 12:10:41;;;;;;;51.13;23.73;;;;;;;-0.15;80.38;100620.59;126049;1099;102185;-77
2023/01/27 12:13:20;;;;;;;49.27;21.17;;;;;;;-0.11;81.18;100620.97;126424;1098;102422;-75
2023/01/27 12:15:59;;;;;;;52.50;25.40;;;;;;;-0.10;80.68;100619.28;126664;1098;102421;-77
2023/01/27 12:18:37;;;;;;;51.50;24.50;;;;;;;-0.08;80.66;100618.63;126039;1099;101904;-75
2023/01/27 12:21:11;;;;;;;53.13;23.50;;;;;;;-0.06;80.77;100616.17;126015;1099;102775;-78
2023/01/27 12:23:54;;;;;;;92.33;30.67;;;;;;;-0.03;81.25;100621.58;125505;1099;102370;-80
2023/01/27 12:26:39;;;;;;;53.73;23.70;;;;;;;0.01;80.79;100631.34;125348;1099;104211;-76